createdAt,value
2023-02-03T00:10:15.148Z,3.60
2023-02-03T00:25:18.190Z,4.10
2023-02-03T00:40:26.596Z,3.97
2023-02-03T00:55:31.832Z,4.67
2023-02-03T01:10:35.568Z,4.77
2023-02-03T01:25:47.249Z,3.40
2023-02-03T01:41:01.940Z,3.43
2023-02-03T01:56:05.315Z,5.40
2023-02-03T02:11:07.592Z,4.97
2023-02-03T02:26:57.807Z,5.07
2023-02-03T02:42:17.571Z,6.00
2023-02-03T02:57:27.768Z,7.47
2023-02-03T03:12:34.626Z,5.67
2023-02-03T03:27:43.083Z,6.47
2023-02-03T03:42:53.933Z,10.50
2023-02-03T03:58:02.635Z,6.33
2023-02-03T04:13:08.921Z,7.43
2023-02-03T04:28:11.300Z,8.27
2023-02-03T04:43:15.035Z,6.93
2023-02-03T04:58:18.197Z,6.60
2023-02-03T05:13:20.615Z,6.37
2023-02-03T05:28:22.680Z,7.50
2023-02-03T05:43:29.809Z,7.83
2023-02-03T05:58:31.829Z,7.87
2023-02-03T06:13:37.820Z,7.00
2023-02-03T06:28:39.779Z,7.45
2023-02-03T06:43:42.338Z,4.80
2023-02-03T06:58:44.727Z,4.67
2023-02-03T07:13:46.608Z,4.00
2023-02-03T07:28:48.807Z,6.03
2023-02-03T07:43:51.358Z,5.67
2023-02-03T07:58:53.375Z,5.37
2023-02-03T08:13:55.224Z,5.40
2023-02-03T08:28:57.101Z,3.83
2023-02-03T08:44:00.140Z,4.30
2023-02-03T08:59:02.169Z,3.60
2023-02-03T09:14:05.237Z,4.27
2023-02-03T09:29:08.526Z,3.60
2023-02-03T09:44:25.869Z,4.57
2023-02-03T09:59:31.540Z,4.60
2023-02-03T14:32:08.794Z,2.40
2023-02-03T14:47:43.059Z,3.43
2023-02-03T15:03:10.449Z,3.70
2023-02-03T15:18:29.338Z,3.40
2023-02-03T15:33:33.488Z,2.80
2023-02-03T15:48:47.600Z,3.07
2023-02-03T16:03:55.189Z,2.90
2023-02-03T16:19:01.747Z,2.67
2023-02-03T16:34:34.614Z,2.33
2023-02-03T16:49:55.366Z,3.13
2023-02-03T17:04:57.232Z,3.73
2023-02-03T17:19:59.560Z,4.27
2023-02-03T17:35:01.643Z,5.17
2023-02-03T18:05:23.338Z,6.40
2023-02-03T18:20:25.272Z,6.27
2023-02-03T18:35:27.598Z,6.93
2023-02-03T18:50:29.865Z,7.13
2023-02-03T19:05:32.030Z,7.27
2023-02-03T19:20:34.461Z,6.13
2023-02-03T19:35:36.871Z,7.63
2023-02-03T19:50:40.967Z,15.17
2023-02-03T20:05:42.911Z,8.67
2023-02-03T20:20:44.772Z,7.30
2023-02-03T20:35:46.971Z,10.33
2023-02-03T20:50:50.378Z,8.73
2023-02-03T21:05:52.241Z,10.57
2023-02-03T21:20:54.053Z,10.07
2023-02-03T21:35:56.501Z,9.90
2023-02-03T21:51:26.774Z,9.37
2023-02-03T22:06:36.401Z,10.57
2023-02-03T22:21:38.432Z,12.87
2023-02-03T22:36:40.587Z,14.03
2023-02-03T22:51:42.456Z,8.03
2023-02-03T23:06:44.334Z,11.10
2023-02-03T23:21:46.208Z,8.10
2023-02-03T23:36:48.380Z,7.27
2023-02-03T23:51:50.358Z,4.73
